Time;durP1;ratioP1;P1;durP2;ratioP2;P2;SDS_P1;SDS_P2;PMS_P1;PMS_P2;Temp;Humidity;BMP_temperature;BMP_pressure;BME280_temperature;BME280_humidity;BME280_pressure;Samples;Min_cycle;Max_cycle;Signal;HPM_P1;HPM_P2
2023/11/04 00:02:24;;;;;;;8.15;3.78;;;9.80;93.60;;;;;;5015333;28;20037;-76
2023/11/04 00:04:51;;;;;;;8.07;3.55;;;9.80;93.70;;;;;;5013692;28;20264;-75
2023/11/04 00:07:17;;;;;;;6.13;3.40;;;9.80;93.90;;;;;;5014031;28;20037;-74
2023/11/04 00:09:44;;;;;;;8.30;3.63;;;9.80;94.00;;;;;;5015402;28;20044;-76
2023/11/04 00:12:11;;;;;;;10.55;4.53;;;9.80;94.00;;;;;;5012250;28;20423;-75
2023/11/04 00:14:37;;;;;;;8.30;3.60;;;9.80;94.10;;;;;;5015796;28;20021;-75
2023/11/04 00:17:03;;;;;;;8.70;4.07;;;9.70;94.30;;;;;;5014087;28;20046;-78
2023/11/04 00:19:28;;;;;;;7.78;3.85;;;9.70;94.50;;;;;;5016683;28;20097;-77
2023/11/04 00:21:55;;;;;;;9.35;3.88;;;9.70;94.60;;;;;;5011012;28;20069;-75
2023/11/04 00:24:21;;;;;;;9.98;3.90;;;9.70;94.70;;;;;;5031595;28;20296;-75
2023/11/04 00:26:46;;;;;;;7.75;3.88;;;9.60;94.90;;;;;;5012552;28;20131;-77
2023/11/04 00:29:12;;;;;;;8.88;4.18;;;9.70;95.00;;;;;;5012958;28;20072;-77
2023/11/04 00:31:38;;;;;;;8.55;3.75;;;9.60;95.20;;;;;;5017233;28;20030;-76
2023/11/04 00:34:04;;;;;;;8.50;3.90;;;9.60;95.30;;;;;;5014151;28;20026;-75
2023/11/04 00:36:30;;;;;;;7.72;3.88;;;9.60;95.40;;;;;;5012803;28;20045;-74
2023/11/04 00:38:56;;;;;;;12.27;3.92;;;9.60;95.50;;;;;;5011416;28;20256;-75
2023/11/04 00:41:22;;;;;;;8.95;3.63;;;9.60;95.60;;;;;;5028765;28;20132;-75
2023/11/04 00:43:48;;;;;;;8.27;3.53;;;9.60;95.70;;;;;;5038225;28;20017;-77
2023/11/04 00:46:13;;;;;;;6.32;3.13;;;9.60;95.70;;;;;;5031885;28;20585;-75
2023/11/04 00:48:39;;;;;;;9.45;3.55;;;9.60;95.70;;;;;;5023044;28;20498;-75
2023/11/04 00:51:06;;;;;;;8.20;3.50;;;9.60;95.80;;;;;;5013239;28;20034;-74
2023/11/04 00:53:32;;;;;;;10.13;3.95;;;9.60;95.80;;;;;;5018871;28;20033;-74
2023/11/04 00:55:58;;;;;;;9.02;3.40;;;9.60;95.90;;;;;;5014440;28;20034;-78
2023/11/04 00:58:23;;;;;;;6.97;3.33;;;9.60;95.90;;;;;;5014034;28;20497;-76
2023/11/04 01:00:49;;;;;;;7.72;3.70;;;9.50;96.00;;;;;;5019757;28;20042;-76
2023/11/04 01:03:15;;;;;;;7.43;3.80;;;9.50;96.00;;;;;;5016144;28;20053;-75
2023/11/04 01:05:40;;;;;;;8.45;3.45;;;9.50;96.10;;;;;;5014556;28;20187;-75
2023/11/04 01:08:08;;;;;;;7.35;3.47;;;9.40;96.20;;;;;;5010670;28;20239;-76
2023/11/04 01:10:34;;;;;;;9.07;3.60;;;9.50;96.20;;;;;;5013135;28;20426;-75
2023/11/04 01:12:59;;;;;;;7.70;4.07;;;9.50;96.30;;;;;;5012658;28;20033;-75
2023/11/04 01:15:25;;;;;;;8.15;3.83;;;9.50;96.40;;;;;;5034423;28;20433;-76
2023/11/04 01:17:51;;;;;;;8.10;3.90;;;9.50;96.50;;;;;;5013603;28;20034;-75
2023/11/04 01:20:17;;;;;;;10.52;4.25;;;9.50;96.50;;;;;;5017265;28;20045;-76
2023/11/04 01:22:43;;;;;;;10.75;4.30;;;9.40;96.50;;;;;;5021615;28;20101;-76
2023/11/04 01:25:08;;;;;;;8.80;4.53;;;9.50;96.60;;;;;;5017443;28;20176;-76
2023/11/04 01:27:34;;;;;;;8.32;4.13;;;9.40;96.70;;;;;;5019097;28;20055;-76
2023/11/04 01:30:00;;;;;;;8.85;4.47;;;9.50;96.70;;;;;;5021430;28;20442;-75
2023/11/04 01:32:26;;;;;;;9.75;4.47;;;9.50;96.70;;;;;;5015989;28;20485;-75
2023/11/04 01:34:52;;;;;;;8.10;3.88;;;9.50;96.70;;;;;;5019972;28;20482;-76
2023/11/04 01:37:19;;;;;;;6.45;3.70;;;9.50;96.80;;;;;;5016920;28;20041;-76
2023/11/04 01:39:44;;;;;;;8.32;3.95;;;9.60;96.80;;;;;;5015507;28;20110;-76
2023/11/04 01:42:10;;;;;;;9.48;4.18;;;9.50;96.70;;;;;;5012381;28;20486;-75
2023/11/04 01:44:36;;;;;;;10.20;4.65;;;9.50;96.80;;;;;;5015550;28;20033;-75
2023/11/04 01:47:02;;;;;;;8.98;4.13;;;9.50;96.80;;;;;;5013921;28;20351;-76
2023/11/04 01:49:28;;;;;;;13.60;4.75;;;9.50;96.70;;;;;;5017080;28;20434;-76
2023/11/04 01:51:56;;;;;;;11.85;4.03;;;9.50;96.90;;;;;;5014630;28;20057;-74
2023/11/04 01:54:23;;;;;;;9.75;4.50;;;9.40;96.80;;;;;;5020528;28;20025;-77
2023/11/04 01:56:49;;;;;;;11.20;4.53;;;9.40;96.90;;;;;;5015475;28;20072;-74
2023/11/04 01:59:15;;;;;;;8.77;3.63;;;9.50;97.00;;;;;;5019356;28;20399;-74
2023/11/04 02:01:45;;;;;;;9.65;4.20;;;9.50;97.00;;;;;;5016303;28;20078;-75
2023/11/04 02:04:12;;;;;;;10.88;4.78;;;9.50;97.00;;;;;;5019719;28;20025;-76
2023/11/04 02:06:40;;;;;;;12.20;4.95;;;9.60;97.00;;;;;;5012121;28;20103;-76
2023/11/04 02:09:06;;;;;;;9.45;4.63;;;9.50;96.90;;;;;;5017636;28;20482;-78
2023/11/04 02:11:32;;;;;;;10.93;4.82;;;9.50;96.90;;;;;;5014513;28;20034;-76
2023/11/04 02:13:58;;;;;;;11.20;5.00;;;9.50;96.90;;;;;;5018189;28;20064;-75
2023/11/04 02:16:24;;;;;;;11.25;5.00;;;9.50;96.90;;;;;;5018736;28;20034;-78
2023/11/04 02:18:49;;;;;;;12.65;5.00;;;9.60;97.00;;;;;;5021676;28;20374;-75
2023/11/04 02:21:16;;;;;;;13.20;4.60;;;9.60;97.00;;;;;;5018416;28;20034;-78
2023/11/04 02:23:41;;;;;;;10.68;4.35;;;9.60;97.00;;;;;;5018116;28;20480;-76
2023/11/04 02:26:07;;;;;;;12.75;4.15;;;9.60;96.90;;;;;;5018382;28;20535;-78
2023/11/04 02:28:33;;;;;;;9.48;3.78;;;9.60;96.80;;;;;;5020029;28;20072;-76
2023/11/04 02:30:58;;;;;;;16.80;4.63;;;9.60;96.80;;;;;;5019000;28;20472;-75
2023/11/04 02:33:24;;;;;;;11.02;4.50;;;9.60;96.70;;;;;;5019746;28;20502;-77
2023/11/04 02:35:50;;;;;;;11.80;4.45;;;9.60;96.70;;;;;;5015778;28;20099;-76
2023/11/04 02:38:16;;;;;;;10.90;4.10;;;9.60;96.60;;;;;;5018718;28;20620;-76
2023/11/04 02:40:42;;;;;;;10.80;4.40;;;9.60;96.60;;;;;;5015868;28;20038;-74
2023/11/04 02:43:08;;;;;;;12.98;4.72;;;9.60;96.60;;;;;;5018107;28;20450;-75
2023/11/04 02:45:34;;;;;;;9.32;4.13;;;9.60;96.60;;;;;;5022042;28;20034;-75
2023/11/04 02:48:01;;;;;;;11.65;4.45;;;9.70;96.60;;;;;;5020161;28;20039;-76
2023/11/04 02:50:27;;;;;;;15.93;4.70;;;9.70;96.40;;;;;;5018239;28;20033;-74
2023/11/04 02:52:53;;;;;;;12.82;4.47;;;9.70;96.30;;;;;;5023161;28;20030;-74
2023/11/04 02:55:18;;;;;;;11.50;4.20;;;9.70;96.30;;;;;;5017550;28;20565;-77
2023/11/04 02:57:44;;;;;;;15.63;4.18;;;9.70;96.20;;;;;;5025518;28;20121;-76
2023/11/04 03:00:11;;;;;;;11.30;4.90;;;9.60;96.10;;;;;;5018088;28;20045;-76
2023/11/04 03:02:36;;;;;;;13.38;4.32;;;9.70;96.10;;;;;;5033176;28;20114;-75
2023/11/04 03:05:04;;;;;;;11.13;4.30;;;9.70;96.00;;;;;;5018330;28;20045;-75
2023/11/04 03:07:30;;;;;;;11.80;4.60;;;9.70;96.10;;;;;;5015914;28;20510;-74
2023/11/04 03:09:56;;;;;;;9.95;4.80;;;9.70;96.10;;;;;;5017175;28;20109;-74
2023/11/04 03:12:21;;;;;;;15.75;5.20;;;9.70;96.10;;;;;;5014762;28;20029;-74
2023/11/04 03:14:47;;;;;;;11.73;5.20;;;9.70;96.10;;;;;;5022271;28;20034;-76
2023/11/04 03:17:14;;;;;;;13.25;5.03;;;9.70;96.20;;;;;;5017723;28;20239;-74
2023/11/04 03:19:42;;;;;;;16.02;4.80;;;9.70;96.00;;;;;;5014411;28;20033;-74
2023/11/04 03:22:08;;;;;;;12.40;4.80;;;9.60;96.00;;;;;;5013158;28;20407;-77
2023/11/04 03:24:33;;;;;;;10.32;4.60;;;9.60;96.10;;;;;;5018528;28;20526;-77
2023/11/04 03:26:59;;;;;;;14.55;5.13;;;9.50;96.10;;;;;;5015287;28;20050;-75
2023/11/04 03:29:25;;;;;;;15.10;4.78;;;9.40;96.00;;;;;;5014158;28;20037;-75
2023/11/04 03:31:50;;;;;;;17.50;4.80;;;9.40;96.10;;;;;;5021360;28;20037;-75
2023/11/04 03:34:16;;;;;;;12.20;4.55;;;9.30;96.20;;;;;;5015449;28;20025;-77
2023/11/04 03:36:41;;;;;;;14.75;4.47;;;9.20;96.20;;;;;;5019980;28;20387;-76
2023/11/04 03:39:08;;;;;;;12.60;4.43;;;9.20;96.20;;;;;;5018426;28;20045;-75
2023/11/04 03:41:34;;;;;;;14.20;4.95;;;9.10;96.30;;;;;;5014612;28;20038;-76
2023/11/04 03:44:00;;;;;;;12.38;4.60;;;9.10;96.30;;;;;;5016861;28;20702;-75
2023/11/04 03:46:25;;;;;;;16.98;4.43;;;9.10;96.30;;;;;;5017229;28;20038;-75
2023/11/04 03:48:51;;;;;;;16.08;4.28;;;9.10;96.40;;;;;;5020668;28;20025;-76
2023/11/04 03:51:17;;;;;;;10.02;3.80;;;9.00;96.30;;;;;;5014779;28;20041;-75
2023/11/04 03:53:42;;;;;;;15.88;4.32;;;8.90;96.40;;;;;;5019907;28;20124;-77
2023/11/04 03:56:08;;;;;;;15.88;4.25;;;8.90;96.40;;;;;;5015524;28;20507;-75
2023/11/04 03:58:34;;;;;;;15.00;4.88;;;8.90;96.40;;;;;;5015518;28;20049;-76
2023/11/04 04:01:02;;;;;;;14.32;4.65;;;8.90;96.40;;;;;;5011788;28;20094;-75
2023/11/04 04:03:28;;;;;;;15.20;4.57;;;8.80;96.50;;;;;;5017211;28;20032;-75
2023/11/04 04:05:54;;;;;;;16.23;3.85;;;8.80;96.40;;;;;;5016266;28;20029;-78
2023/11/04 04:08:19;;;;;;;13.45;3.80;;;8.80;96.60;;;;;;5017796;28;20037;-77
2023/11/04 04:10:45;;;;;;;12.77;3.90;;;8.70;96.60;;;;;;5017237;28;20497;-76
2023/11/04 04:13:11;;;;;;;10.02;3.80;;;8.80;96.50;;;;;;5009210;28;20521;-77
2023/11/04 04:15:37;;;;;;;12.88;3.75;;;8.80;96.40;;;;;;5009881;28;20135;-75
2023/11/04 04:18:02;;;;;;;14.68;4.15;;;8.70;96.50;;;;;;5016794;28;20045;-76
2023/11/04 04:20:29;;;;;;;13.45;3.70;;;8.60;96.50;;;;;;5013548;28;20099;-75
2023/11/04 04:22:55;;;;;;;14.32;4.15;;;8.60;96.60;;;;;;5018604;28;20482;-76
2023/11/04 04:25:20;;;;;;;13.90;3.65;;;8.60;96.60;;;;;;5019257;28;20041;-77
2023/11/04 04:27:46;;;;;;;12.20;3.58;;;8.60;96.70;;;;;;5020657;28;20130;-76
2023/11/04 04:30:11;;;;;;;11.77;3.42;;;8.60;96.70;;;;;;5016953;28;20061;-77
2023/11/04 04:32:37;;;;;;;10.55;3.45;;;8.60;96.60;;;;;;5018270;28;20065;-77
2023/11/04 04:35:03;;;;;;;12.82;3.50;;;8.60;96.70;;;;;;5018229;28;20109;-76
2023/11/04 04:37:29;;;;;;;12.43;3.58;;;8.60;96.70;;;;;;5015848;28;20052;-77
2023/11/04 04:39:55;;;;;;;10.40;3.50;;;8.60;96.70;;;;;;5017257;28;20030;-74
2023/11/04 04:42:21;;;;;;;13.13;3.05;;;8.50;96.70;;;;;;5012968;28;20098;-78
2023/11/04 04:44:46;;;;;;;14.77;3.75;;;8.50;96.80;;;;;;5020068;28;20033;-78
2023/11/04 04:47:12;;;;;;;10.75;3.20;;;8.50;96.70;;;;;;5014709;28;20399;-76
2023/11/04 04:49:38;;;;;;;12.43;3.40;;;8.50;96.80;;;;;;5013753;28;20101;-75
2023/11/04 04:52:03;;;;;;;12.80;3.95;;;8.50;96.90;;;;;;5018909;28;20061;-79
2023/11/04 04:54:29;;;;;;;11.23;3.75;;;8.60;96.90;;;;;;5015120;28;20024;-76
2023/11/04 04:56:55;;;;;;;11.10;3.95;;;8.60;96.80;;;;;;5014380;28;20029;-76
2023/11/04 04:59:20;;;;;;;9.40;3.53;;;8.60;96.70;;;;;;5022411;28;20029;-76
2023/11/04 05:01:46;;;;;;;11.23;3.85;;;8.60;96.70;;;;;;5014231;28;21267;-76
2023/11/04 05:04:13;;;;;;;10.75;3.78;;;8.60;96.80;;;;;;5014828;28;20156;-77
2023/11/04 05:06:39;;;;;;;12.23;4.32;;;8.60;96.80;;;;;;5015328;28;20037;-75
2023/11/04 05:09:04;;;;;;;13.10;4.43;;;8.70;96.80;;;;;;5019408;28;20690;-76
2023/11/04 05:11:31;;;;;;;14.48;3.65;;;8.70;96.80;;;;;;5007817;28;20109;-78
2023/11/04 05:13:56;;;;;;;12.48;4.82;;;8.70;96.70;;;;;;5020632;28;20029;-75
2023/11/04 05:16:22;;;;;;;14.05;4.70;;;8.80;96.60;;;;;;5016065;28;20041;-76
2023/11/04 05:18:48;;;;;;;9.60;5.15;;;8.80;96.50;;;;;;5016840;28;20697;-76
2023/11/04 05:21:16;;;;;;;15.27;5.78;;;8.80;96.40;;;;;;5017712;28;20829;-76
2023/11/04 05:23:43;;;;;;;11.82;5.07;;;8.70;96.40;;;;;;5018993;28;20028;-76
2023/11/04 05:26:09;;;;;;;15.88;5.38;;;8.80;96.40;;;;;;5016423;28;20029;-76
2023/11/04 05:28:34;;;;;;;15.52;5.65;;;8.80;96.30;;;;;;5019072;28;20037;-76
2023/11/04 05:31:00;;;;;;;14.32;5.78;;;8.80;96.30;;;;;;5011210;28;20042;-77
2023/11/04 05:33:26;;;;;;;15.38;6.18;;;8.80;96.30;;;;;;5019250;28;20030;-77
2023/11/04 05:35:52;;;;;;;13.45;5.72;;;8.80;96.20;;;;;;5013344;28;20382;-75
2023/11/04 05:38:18;;;;;;;17.05;6.55;;;8.70;96.20;;;;;;5010892;28;20080;-76
2023/11/04 05:40:44;;;;;;;13.77;5.75;;;8.80;96.20;;;;;;5036411;28;20044;-78
2023/11/04 05:43:09;;;;;;;14.77;6.60;;;8.80;96.10;;;;;;5035258;28;20034;-77
2023/11/04 05:45:35;;;;;;;21.83;6.75;;;8.80;96.10;;;;;;5034980;28;20084;-77
2023/11/04 05:48:01;;;;;;;13.77;6.38;;;8.80;96.20;;;;;;5015305;28;20033;-76
2023/11/04 05:50:27;;;;;;;15.90;6.65;;;8.80;96.20;;;;;;5034788;28;20025;-77
2023/11/04 05:52:52;;;;;;;12.55;6.20;;;8.80;96.20;;;;;;5024013;28;20119;-76
2023/11/04 05:55:18;;;;;;;13.05;6.28;;;8.80;96.20;;;;;;5019380;28;20072;-76
2023/11/04 05:57:44;;;;;;;15.43;6.63;;;8.80;96.20;;;;;;5015835;28;20038;-78
2023/11/04 06:00:13;;;;;;;15.18;6.72;;;8.80;96.20;;;;;;5013947;28;20461;-77
2023/11/04 06:02:39;;;;;;;15.52;6.00;;;8.80;96.10;;;;;;5019415;28;20065;-75
2023/11/04 06:05:09;;;;;;;12.32;5.45;;;8.90;96.00;;;;;;5020092;28;20103;-76
2023/11/04 06:07:36;;;;;;;16.33;6.63;;;8.80;95.90;;;;;;5022580;28;20107;-77
2023/11/04 06:10:03;;;;;;;17.83;7.00;;;8.90;95.90;;;;;;5019753;28;20037;-78
2023/11/04 06:12:29;;;;;;;13.20;7.10;;;8.90;95.70;;;;;;5023297;28;20049;-76
2023/11/04 06:14:54;;;;;;;14.98;7.63;;;8.90;95.60;;;;;;5013019;28;20040;-75
2023/11/04 06:17:20;;;;;;;20.65;8.75;;;8.90;95.70;;;;;;5019619;28;20117;-76
2023/11/04 06:19:46;;;;;;;15.15;8.30;;;8.90;95.60;;;;;;5022832;28;20386;-76
2023/11/04 06:22:12;;;;;;;19.80;8.45;;;8.90;95.60;;;;;;5019497;28;20042;-75
2023/11/04 06:24:38;;;;;;;15.95;8.80;;;9.00;95.50;;;;;;5018284;28;20021;-78
2023/11/04 06:27:07;;;;;;;19.63;8.93;;;9.00;95.40;;;;;;5020790;28;20124;-77
2023/11/04 06:29:33;;;;;;;17.33;8.43;;;9.00;95.30;;;;;;5016196;28;20029;-75
2023/11/04 06:31:59;;;;;;;20.85;8.57;;;9.00;95.30;;;;;;5014512;28;20029;-76
2023/11/04 06:34:24;;;;;;;18.55;8.38;;;9.00;95.20;;;;;;5014970;28;20343;-75
2023/11/04 06:36:51;;;;;;;21.45;8.45;;;9.00;95.00;;;;;;5016272;28;20478;-78
2023/11/04 06:39:17;;;;;;;15.18;7.90;;;9.10;94.90;;;;;;5021348;28;20593;-76
2023/11/04 06:41:43;;;;;;;17.48;7.85;;;9.10;94.90;;;;;;5017009;28;20108;-76
2023/11/04 06:44:09;;;;;;;18.75;7.90;;;9.10;94.80;;;;;;5031711;28;20033;-78
2023/11/04 06:46:35;;;;;;;15.65;8.40;;;9.10;94.80;;;;;;5016620;28;20041;-77
2023/11/04 06:49:01;;;;;;;17.88;7.22;;;9.10;94.50;;;;;;5021867;28;20415;-76
2023/11/04 06:51:27;;;;;;;19.48;7.65;;;9.10;94.50;;;;;;5017536;28;20522;-78
2023/11/04 06:53:55;;;;;;;17.00;7.13;;;9.10;94.50;;;;;;5019840;28;20306;-75
2023/11/04 06:56:24;;;;;;;14.82;6.90;;;9.10;94.30;;;;;;5017695;28;20160;-77
2023/11/04 06:58:53;;;;;;;16.10;6.68;;;9.20;94.30;;;;;;5014953;28;20116;-78
2023/11/04 07:01:19;;;;;;;12.80;5.90;;;9.20;94.30;;;;;;5034810;28;20096;-75
2023/11/04 07:03:47;;;;;;;13.75;6.13;;;9.20;94.20;;;;;;5018839;28;20661;-75
2023/11/04 07:06:19;;;;;;;17.63;5.82;;;9.20;94.30;;;;;;5016719;28;20053;-77
2023/11/04 07:08:46;;;;;;;19.08;6.03;;;9.20;94.20;;;;;;5017017;28;20076;-75
2023/11/04 07:11:16;;;;;;;17.08;6.03;;;9.20;94.00;;;;;;5017533;28;20084;-75
2023/11/04 07:13:42;;;;;;;17.27;6.80;;;9.30;93.90;;;;;;5021960;28;20509;-77
2023/11/04 07:16:12;;;;;;;16.25;5.10;;;9.30;93.90;;;;;;5020108;28;20049;-78
2023/11/04 07:18:39;;;;;;;15.32;5.45;;;9.30;93.80;;;;;;5017693;28;20388;-76
2023/11/04 07:21:05;;;;;;;14.23;5.13;;;9.30;93.60;;;;;;5017552;28;20030;-75
2023/11/04 07:23:31;;;;;;;17.00;6.25;;;9.30;93.50;;;;;;5018136;28;20024;-78
2023/11/04 07:25:56;;;;;;;14.32;5.55;;;9.30;93.40;;;;;;5012520;28;20120;-76
2023/11/04 07:28:22;;;;;;;14.60;5.78;;;9.40;93.30;;;;;;5015697;28;20063;-75
2023/11/04 07:30:49;;;;;;;12.18;4.47;;;9.40;93.20;;;;;;5016032;28;20025;-75
2023/11/04 07:33:15;;;;;;;12.38;5.00;;;9.40;93.20;;;;;;5020088;28;20172;-78
2023/11/04 07:35:41;;;;;;;13.88;4.53;;;9.40;93.10;;;;;;5018522;28;20080;-77
2023/11/04 07:38:08;;;;;;;14.20;4.30;;;9.40;93.20;;;;;;5020162;28;20084;-76
2023/11/04 07:40:34;;;;;;;16.08;3.88;;;9.40;93.00;;;;;;5012041;28;20025;-74
2023/11/04 07:43:00;;;;;;;14.00;4.45;;;9.30;93.00;;;;;;5018472;28;20036;-75
2023/11/04 07:45:27;;;;;;;15.35;4.55;;;9.40;92.90;;;;;;5011267;28;20608;-74
2023/11/04 07:47:53;;;;;;;11.38;3.45;;;9.40;92.90;;;;;;5011174;28;20482;-76
2023/11/04 07:50:19;;;;;;;15.23;4.00;;;9.50;92.70;;;;;;5010160;28;20500;-75
2023/11/04 07:52:44;;;;;;;15.50;3.80;;;9.40;92.80;;;;;;5013413;28;20029;-76
2023/11/04 07:55:10;;;;;;;11.68;3.47;;;9.40;92.80;;;;;;5015763;28;20409;-77
2023/11/04 07:57:40;;;;;;;14.13;4.05;;;9.50;92.70;;;;;;5012720;28;20056;-77
2023/11/04 08:00:10;;;;;;;13.57;4.75;;;9.50;92.70;;;;;;5012003;28;20032;-78
2023/11/04 08:02:37;;;;;;;16.48;5.78;;;9.50;92.60;;;;;;5008810;28;20049;-74
2023/11/04 08:05:04;;;;;;;15.93;4.18;;;9.50;92.60;;;;;;5018570;28;20037;-77
2023/11/04 08:07:30;;;;;;;15.05;3.90;;;9.50;92.60;;;;;;5018500;28;20092;-74
2023/11/04 08:09:56;;;;;;;12.38;4.13;;;9.60;92.30;;;;;;5014232;28;20429;-74
2023/11/04 08:12:22;;;;;;;10.02;3.75;;;9.60;92.20;;;;;;5016465;28;20038;-75
2023/11/04 08:14:48;;;;;;;14.88;3.70;;;9.60;92.30;;;;;;5012923;28;20095;-76
2023/11/04 08:17:14;;;;;;;10.05;3.25;;;9.60;92.30;;;;;;5012464;28;20049;-78
2023/11/04 08:19:40;;;;;;;11.45;3.20;;;9.60;92.30;;;;;;5007205;28;20483;-74
2023/11/04 08:22:07;;;;;;;11.63;3.83;;;9.60;92.40;;;;;;5018848;28;20045;-74
2023/11/04 08:24:33;;;;;;;11.70;3.58;;;9.60;92.60;;;;;;5018375;28;20032;-75
2023/11/04 08:26:59;;;;;;;11.35;3.50;;;9.60;92.80;;;;;;5016229;28;20040;-74
2023/11/04 08:29:24;;;;;;;10.25;3.42;;;9.60;93.00;;;;;;5016239;28;20044;-75
2023/11/04 08:31:50;;;;;;;12.40;4.05;;;9.60;93.30;;;;;;5017828;28;20803;-75
2023/11/04 08:34:16;;;;;;;10.57;3.55;;;9.60;93.50;;;;;;5014250;28;20033;-74
2023/11/04 08:36:42;;;;;;;12.13;3.50;;;9.50;93.60;;;;;;5017480;28;20423;-76
2023/11/04 08:39:09;;;;;;;13.00;3.85;;;9.50;93.90;;;;;;5015712;28;20038;-77
2023/11/04 08:41:35;;;;;;;14.68;3.35;;;9.40;94.10;;;;;;5011529;28;20479;-76
2023/11/04 08:44:00;;;;;;;12.20;3.22;;;9.50;94.30;;;;;;5013828;28;20049;-77
2023/11/04 08:46:26;;;;;;;9.93;3.30;;;9.40;94.50;;;;;;5015955;28;20101;-75
2023/11/04 08:48:52;;;;;;;10.95;3.58;;;9.30;94.70;;;;;;5016186;28;20378;-76
2023/11/04 08:51:18;;;;;;;12.00;3.33;;;9.40;95.00;;;;;;5016637;28;20037;-76
2023/11/04 08:53:43;;;;;;;14.55;3.78;;;9.30;95.10;;;;;;5012633;28;20021;-75
2023/11/04 08:56:09;;;;;;;14.25;3.13;;;9.30;95.20;;;;;;5010185;28;20037;-78
2023/11/04 08:58:35;;;;;;;11.88;3.85;;;9.30;95.40;;;;;;5013424;28;20052;-75
2023/11/04 09:01:02;;;;;;;9.60;4.07;;;9.30;95.50;;;;;;5009344;28;20049;-74
2023/11/04 09:03:28;;;;;;;10.18;4.15;;;9.30;95.50;;;;;;5006188;28;20054;-75
2023/11/04 09:05:54;;;;;;;13.02;4.60;;;9.30;95.60;;;;;;5013691;28;20084;-75
2023/11/04 09:08:20;;;;;;;16.65;5.22;;;9.20;95.80;;;;;;5008567;28;20022;-75
2023/11/04 09:10:47;;;;;;;14.45;5.90;;;9.20;95.80;;;;;;5016088;28;20470;-74
2023/11/04 09:13:13;;;;;;;13.50;6.55;;;9.20;95.80;;;;;;5011578;28;20393;-74
2023/11/04 09:15:40;;;;;;;13.50;4.20;;;9.30;95.90;;;;;;5011916;28;20033;-75
2023/11/04 09:18:06;;;;;;;9.95;3.85;;;9.20;95.90;;;;;;5012576;28;20049;-73
2023/11/04 09:20:32;;;;;;;11.43;4.07;;;9.20;96.00;;;;;;5020944;28;20033;-75
2023/11/04 09:22:58;;;;;;;13.15;4.30;;;9.20;95.90;;;;;;5017973;28;20106;-75
2023/11/04 09:25:24;;;;;;;13.13;3.55;;;9.20;96.00;;;;;;5011252;28;20044;-74
2023/11/04 09:27:50;;;;;;;11.18;3.38;;;9.20;96.00;;;;;;5010348;28;20041;-76
2023/11/04 09:30:16;;;;;;;10.05;3.88;;;9.20;96.10;;;;;;5005421;28;20022;-79
2023/11/04 09:32:42;;;;;;;14.40;4.65;;;9.20;95.90;;;;;;5017312;28;20701;-80
2023/11/04 09:35:12;;;;;;;12.38;3.20;;;9.20;96.00;;;;;;5015587;28;20053;-81
2023/11/04 09:37:41;;;;;;;11.13;3.35;;;9.30;96.00;;;;;;5014274;28;20050;-78
2023/11/04 09:40:08;;;;;;;12.50;2.92;;;9.30;96.00;;;;;;5016891;28;20133;-76
2023/11/04 09:42:35;;;;;;;11.60;3.30;;;9.30;95.90;;;;;;5011407;28;20038;-77
2023/11/04 09:45:06;;;;;;;13.27;3.38;;;9.30;96.00;;;;;;5014478;28;20034;-77
2023/11/04 09:47:31;;;;;;;9.90;3.17;;;9.30;96.00;;;;;;5013668;28;20077;-76
2023/11/04 09:49:58;;;;;;;11.60;3.75;;;9.30;96.00;;;;;;5017764;28;20371;-78
2023/11/04 09:52:25;;;;;;;10.15;2.75;;;9.40;96.00;;;;;;5012203;28;20061;-76
2023/11/04 09:54:52;;;;;;;9.90;2.78;;;9.40;96.00;;;;;;5017375;28;20033;-76
2023/11/04 09:57:19;;;;;;;10.95;3.03;;;9.40;95.90;;;;;;5014103;28;20467;-75
2023/11/04 09:59:45;;;;;;;11.10;3.42;;;9.50;96.10;;;;;;5015617;28;20029;-75
2023/11/04 10:02:11;;;;;;;12.25;3.08;;;9.60;96.10;;;;;;5017920;28;20219;-74
2023/11/04 10:04:38;;;;;;;8.60;4.05;;;9.60;96.00;;;;;;5018084;28;20048;-74
2023/11/04 10:07:05;;;;;;;11.93;4.25;;;9.50;96.10;;;;;;5018552;28;20026;-76
2023/11/04 10:09:35;;;;;;;8.05;3.20;;;9.50;96.30;;;;;;5014368;28;20032;-75
2023/11/04 10:12:01;;;;;;;11.50;3.20;;;9.50;96.30;;;;;;5011802;28;20133;-74
2023/11/04 10:14:26;;;;;;;8.25;2.95;;;9.50;96.10;;;;;;5014181;28;20163;-75
2023/11/04 10:16:52;;;;;;;10.15;2.83;;;9.50;96.20;;;;;;5018708;28;20049;-75
2023/11/04 10:19:19;;;;;;;9.45;2.78;;;9.50;96.20;;;;;;5007585;28;20112;-75
2023/11/04 10:21:44;;;;;;;9.32;2.80;;;9.60;96.30;;;;;;5011712;28;20042;-74
2023/11/04 10:24:11;;;;;;;8.23;2.35;;;9.60;96.20;;;;;;5015252;28;20029;-75
2023/11/04 10:26:37;;;;;;;7.75;2.72;;;9.60;96.00;;;;;;5007807;28;20076;-75
2023/11/04 10:29:06;;;;;;;10.95;2.75;;;9.60;96.10;;;;;;5014601;28;20057;-75
2023/11/04 10:31:33;;;;;;;6.18;2.03;;;9.60;96.30;;;;;;5013966;28;20076;-74
2023/11/04 10:34:00;;;;;;;7.25;3.08;;;9.60;96.30;;;;;;5031244;28;20097;-75
2023/11/04 10:36:27;;;;;;;10.43;2.67;;;9.60;96.50;;;;;;5038176;28;20056;-75
2023/11/04 10:39:01;;;;;;;7.30;3.35;;;9.60;96.80;;;;;;5042476;28;20038;-75
2023/11/04 10:41:56;;;;;;;7.40;2.57;;;9.60;96.60;;;;;;5025708;28;20033;-75
2023/11/04 10:44:28;;;;;;;10.43;5.18;;;9.60;96.70;;;;;;5018803;28;20284;-75
2023/11/04 10:47:13;;;;;;;8.40;2.80;;;9.60;96.80;;;;;;5019058;28;20159;-75
2023/11/04 10:49:57;;;;;;;12.13;4.90;;;9.60;96.70;;;;;;5019656;28;20037;-74
2023/11/04 10:52:26;;;;;;;20.20;9.40;;;9.60;96.80;;;;;;5017397;28;20022;-74
2023/11/04 10:55:07;;;;;;;7.82;3.58;;;9.70;96.90;;;;;;5017812;28;20510;-74
2023/11/04 10:57:32;;;;;;;8.18;3.40;;;9.70;96.90;;;;;;5020305;28;20057;-74
2023/11/04 11:00:19;;;;;;;8.35;3.45;;;9.70;96.70;;;;;;5017160;28;20442;-73
2023/11/04 11:02:46;;;;;;;6.68;2.50;;;9.70;96.70;;;;;;5013364;28;20036;-73
2023/11/04 11:05:13;;;;;;;7.07;2.65;;;9.70;96.60;;;;;;5013844;28;20038;-74
2023/11/04 11:07:40;;;;;;;8.75;3.20;;;9.70;96.70;;;;;;5018273;28;20539;-72
2023/11/04 11:10:10;;;;;;;7.35;2.88;;;9.70;96.70;;;;;;5016397;28;20685;-76
2023/11/04 11:12:56;;;;;;;8.80;3.97;;;9.70;96.70;;;;;;5019377;28;20326;-75
2023/11/04 11:15:23;;;;;;;5.82;1.80;;;9.80;96.90;;;;;;5018975;28;20124;-76
2023/11/04 11:17:56;;;;;;;5.30;2.25;;;9.80;96.70;;;;;;5019098;28;20458;-76
2023/11/04 11:20:33;;;;;;;5.50;2.60;;;9.90;96.80;;;;;;5017976;28;20124;-76
2023/11/04 11:23:03;;;;;;;7.57;2.67;;;9.90;96.60;;;;;;5021606;28;20037;-76
2023/11/04 11:25:33;;;;;;;6.45;1.98;;;9.90;96.50;;;;;;5017549;28;20467;-76
2023/11/04 11:28:02;;;;;;;3.90;1.85;;;9.90;96.50;;;;;;5019038;28;20076;-73
2023/11/04 11:30:37;;;;;;;3.55;1.67;;;10.00;96.60;;;;;;5014981;28;20209;-74
2023/11/04 11:33:10;;;;;;;4.40;1.67;;;10.10;96.60;;;;;;5010850;28;20079;-75
2023/11/04 11:36:02;;;;;;;3.60;1.83;;;10.10;96.50;;;;;;5017039;28;20038;-75
2023/11/04 11:38:30;;;;;;;4.53;1.80;;;10.20;96.50;;;;;;5014719;28;20045;-73
2023/11/04 11:41:15;;;;;;;4.97;1.70;;;10.20;96.30;;;;;;5014554;28;20592;-74
2023/11/04 11:43:42;;;;;;;4.20;1.60;;;10.40;96.30;;;;;;5015481;28;20040;-75
2023/11/04 11:46:08;;;;;;;4.00;1.90;;;10.30;96.10;;;;;;5014032;28;20052;-75
2023/11/04 11:48:38;;;;;;;3.03;1.73;;;10.40;96.00;;;;;;5015036;28;20029;-74
2023/11/04 11:51:11;;;;;;;2.85;1.48;;;10.50;96.20;;;;;;5012402;28;20040;-75
2023/11/04 11:53:38;;;;;;;3.33;1.48;;;10.50;96.00;;;;;;5013601;28;20053;-74
2023/11/04 11:56:04;;;;;;;2.15;1.55;;;10.60;95.80;;;;;;5016177;28;20033;-75
2023/11/04 11:58:30;;;;;;;4.40;1.67;;;10.60;95.80;;;;;;5011011;28;20128;-75
2023/11/04 12:01:05;;;;;;;1.77;1.25;;;10.60;95.90;;;;;;5012737;28;20053;-76
2023/11/04 12:03:31;;;;;;;5.30;2.05;;;10.70;95.80;;;;;;5012891;28;20037;-76
2023/11/04 12:05:57;;;;;;;3.20;1.45;;;10.60;96.00;;;;;;5013448;28;20038;-75
2023/11/04 12:08:24;;;;;;;4.00;1.65;;;10.60;96.00;;;;;;5016192;28;20029;-76
2023/11/04 12:10:49;;;;;;;2.15;1.45;;;10.60;95.90;;;;;;5010822;28;20080;-74
2023/11/04 12:13:15;;;;;;;5.15;2.28;;;10.70;95.80;;;;;;5020498;28;20041;-76
2023/11/04 12:15:42;;;;;;;4.05;1.80;;;10.70;95.70;;;;;;5016644;28;20099;-74
2023/11/04 12:18:09;;;;;;;2.92;1.75;;;10.70;95.70;;;;;;5016750;28;20046;-76
2023/11/04 12:20:37;;;;;;;3.03;2.03;;;10.70;95.70;;;;;;5017003;28;20379;-76
2023/11/04 12:23:05;;;;;;;4.00;1.92;;;10.80;95.80;;;;;;5018639;28;20478;-75
2023/11/04 12:25:30;;;;;;;3.28;1.98;;;10.70;95.90;;;;;;5013680;28;21684;-76
2023/11/04 12:28:01;;;;;;;4.95;1.95;;;10.70;96.00;;;;;;5025184;28;20053;-76
2023/11/04 12:30:26;;;;;;;3.53;1.85;;;10.70;96.00;;;;;;5014416;28;20049;-75
2023/11/04 12:32:53;;;;;;;2.15;1.55;;;10.80;96.10;;;;;;5014792;28;20034;-75
2023/11/04 12:35:22;;;;;;;3.08;1.58;;;10.90;96.00;;;;;;5016235;28;20611;-75
2023/11/04 12:37:49;;;;;;;3.70;1.40;;;10.90;95.80;;;;;;5012938;28;20037;-76
2023/11/04 12:40:17;;;;;;;4.07;1.50;;;11.00;95.90;;;;;;5015824;28;20068;-75
2023/11/04 12:42:44;;;;;;;3.47;1.50;;;11.10;95.80;;;;;;5013221;28;20041;-75
2023/11/04 12:45:11;;;;;;;3.75;1.80;;;11.20;95.80;;;;;;5012106;28;20049;-75
2023/11/04 12:47:40;;;;;;;4.85;1.90;;;11.40;95.60;;;;;;5017962;28;20487;-75
2023/11/04 12:50:07;;;;;;;2.47;1.63;;;11.60;95.40;;;;;;5010664;28;20021;-75